Time;durP1;ratioP1;P1;durP2;ratioP2;P2;SDS_P1;SDS_P2;PMS_P1;PMS_P2;Temp;Humidity;BMP_temperature;BMP_pressure;BME280_temperature;BME280_humidity;BME280_pressure;Samples;Min_cycle;Max_cycle;Signal;HPM_P1;HPM_P2
2023/12/14 00:01:19;;;;;;;4.32;1.08;;;;;;;5.96;100.00;100726.72;5026784;28;20503;-48
2023/12/14 00:03:47;;;;;;;5.93;1.20;;;;;;;5.98;100.00;100727.25;5026735;28;20051;-49
2023/12/14 00:06:14;;;;;;;6.78;1.42;;;;;;;6.00;100.00;100722.25;5028778;28;20136;-45
2023/12/14 00:08:42;;;;;;;4.97;1.13;;;;;;;6.01;100.00;100729.38;5027035;28;20495;-46
2023/12/14 00:11:11;;;;;;;14.45;2.50;;;;;;;6.03;100.00;100718.88;5027175;28;20041;-47
2023/12/14 00:13:39;;;;;;;2.67;1.13;;;;;;;6.02;100.00;100711.72;5026342;28;20057;-50
2023/12/14 00:16:07;;;;;;;6.40;1.40;;;;;;;6.03;100.00;100722.44;5027576;28;20518;-46
2023/12/14 00:18:35;;;;;;;3.67;1.80;;;;;;;6.04;100.00;100709.47;5027328;28;20053;-45
2023/12/14 00:21:03;;;;;;;5.05;1.35;;;;;;;6.06;100.00;100721.00;5004098;28;20058;-48
2023/12/14 00:23:31;;;;;;;4.28;0.98;;;;;;;6.06;100.00;100721.78;5019695;28;20045;-50
2023/12/14 00:25:58;;;;;;;2.55;0.88;;;;;;;6.10;100.00;100709.03;5027136;28;20040;-46
2023/12/14 00:28:26;;;;;;;4.20;0.90;;;;;;;6.12;100.00;100717.78;5026637;28;20418;-46
2023/12/14 00:30:57;;;;;;;1.98;0.60;;;;;;;6.15;100.00;100708.06;5020351;28;20056;-45
2023/12/14 00:33:24;;;;;;;3.28;0.90;;;;;;;6.18;100.00;100709.38;5024959;28;20041;-48
2023/12/14 00:35:52;;;;;;;4.53;1.58;;;;;;;6.19;100.00;100702.78;5022160;28;20061;-46
2023/12/14 00:38:19;;;;;;;3.22;1.23;;;;;;;6.21;100.00;100697.75;5026872;28;20045;-45
2023/12/14 00:40:46;;;;;;;6.38;1.20;;;;;;;6.23;100.00;100704.56;5026091;28;20048;-46
2023/12/14 00:43:14;;;;;;;3.33;1.15;;;;;;;6.25;100.00;100699.53;5026395;28;20407;-46
2023/12/14 00:45:41;;;;;;;4.45;1.20;;;;;;;6.28;100.00;100698.09;5009160;28;20061;-49
2023/12/14 00:48:09;;;;;;;2.40;1.00;;;;;;;6.31;100.00;100681.78;5026072;28;20057;-45
2023/12/14 00:50:36;;;;;;;2.97;1.38;;;;;;;6.33;100.00;100682.28;5025894;28;20049;-48
2023/12/14 00:53:03;;;;;;;2.97;1.25;;;;;;;6.34;100.00;100681.16;5024551;28;20045;-47
2023/12/14 00:55:31;;;;;;;2.33;1.27;;;;;;;6.35;100.00;100682.78;5026412;28;20492;-47
2023/12/14 00:57:58;;;;;;;6.40;1.40;;;;;;;6.38;100.00;100684.09;5026350;28;20557;-46
2023/12/14 01:00:25;;;;;;;6.95;1.15;;;;;;;6.38;100.00;100682.13;5026317;28;20048;-48
2023/12/14 01:02:53;;;;;;;4.63;1.35;;;;;;;6.38;100.00;100684.09;4975979;28;1461175;-46
2023/12/14 01:05:20;;;;;;;2.83;1.15;;;;;;;6.40;100.00;100677.13;5026797;28;20041;-48
2023/12/14 01:07:48;;;;;;;4.65;1.25;;;;;;;6.41;100.00;100676.00;5027426;28;20403;-46
2023/12/14 01:10:15;;;;;;;3.15;1.15;;;;;;;6.43;100.00;100682.00;5026691;28;20048;-48
2023/12/14 01:12:43;;;;;;;10.45;2.60;;;;;;;6.45;100.00;100684.44;5026956;28;20056;-48
2023/12/14 01:15:10;;;;;;;5.60;1.25;;;;;;;6.47;100.00;100682.97;5027279;28;20049;-46
2023/12/14 01:17:38;;;;;;;3.42;1.30;;;;;;;6.48;100.00;100673.59;5026547;28;20561;-46
2023/12/14 01:20:09;;;;;;;5.22;1.60;;;;;;;6.50;100.00;100674.09;5027565;28;20045;-47
2023/12/14 01:22:37;;;;;;;3.67;1.75;;;;;;;6.51;100.00;100661.16;5026747;28;20068;-48
2023/12/14 01:25:05;;;;;;;3.83;1.33;;;;;;;6.52;100.00;100649.81;5027432;28;20836;-46
2023/12/14 01:27:32;;;;;;;2.15;1.30;;;;;;;6.53;100.00;100667.13;5027290;28;20053;-46
2023/12/14 01:29:59;;;;;;;8.38;1.42;;;;;;;6.54;100.00;100666.03;5027174;28;20056;-46
2023/12/14 01:32:27;;;;;;;4.78;1.20;;;;;;;6.56;100.00;100661.00;5026947;28;20049;-49
2023/12/14 01:34:54;;;;;;;3.80;1.42;;;;;;;6.58;100.00;100664.25;5027595;28;20060;-49
2023/12/14 01:37:21;;;;;;;1.85;1.20;;;;;;;6.59;100.00;100649.38;5027189;28;20045;-47
2023/12/14 01:39:49;;;;;;;4.32;1.67;;;;;;;6.62;100.00;100637.69;5030766;28;20054;-48
2023/12/14 01:42:16;;;;;;;3.65;1.35;;;;;;;6.63;100.00;100653.91;5030832;28;20045;-47
2023/12/14 01:44:43;;;;;;;3.58;1.35;;;;;;;6.69;100.00;100654.56;4997584;28;20050;-51
2023/12/14 01:47:11;;;;;;;4.22;1.60;;;;;;;6.73;100.00;100650.81;5017827;28;20038;-48
2023/12/14 01:49:38;;;;;;;3.15;1.33;;;;;;;6.76;100.00;100654.88;5030936;28;20056;-48
2023/12/14 01:52:06;;;;;;;2.65;1.30;;;;;;;6.78;100.00;100652.59;5030861;28;20049;-46
2023/12/14 01:54:33;;;;;;;1.73;1.45;;;;;;;6.79;100.00;100659.75;5029357;28;20665;-52
2023/12/14 01:57:01;;;;;;;2.42;1.50;;;;;;;6.80;100.00;100655.06;5012687;28;20050;-46
2023/12/14 01:59:28;;;;;;;3.53;1.20;;;;;;;6.82;100.00;100655.53;5029555;28;20049;-46
2023/12/14 02:01:57;;;;;;;5.13;1.70;;;;;;;6.82;100.00;100647.28;5030505;28;20522;-46
2023/12/14 02:04:25;;;;;;;5.15;1.60;;;;;;;6.81;100.00;100657.47;5029087;28;20428;-47
2023/12/14 02:06:52;;;;;;;1.50;1.00;;;;;;;6.83;100.00;100655.19;5032191;28;20112;-49
2023/12/14 02:09:20;;;;;;;2.28;1.10;;;;;;;6.83;100.00;100652.44;5030310;28;20105;-50
2023/12/14 02:11:47;;;;;;;1.50;0.82;;;;;;;6.85;100.00;100646.63;5030428;28;20045;-45
2023/12/14 02:14:15;;;;;;;2.65;1.13;;;;;;;6.86;100.00;100662.03;5030252;28;20057;-46
2023/12/14 02:16:42;;;;;;;3.85;1.40;;;;;;;6.88;100.00;100655.06;5020314;28;20057;-52
2023/12/14 02:19:10;;;;;;;3.60;1.63;;;;;;;6.89;100.00;100650.34;5023855;28;20470;-51
2023/12/14 02:21:37;;;;;;;1.50;1.33;;;;;;;6.88;100.00;100657.00;5030378;28;20053;-48
2023/12/14 02:24:04;;;;;;;3.20;1.27;;;;;;;6.88;100.00;100657.81;5029044;28;20041;-45
2023/12/14 02:26:32;;;;;;;2.53;1.15;;;;;;;6.89;100.00;100645.66;5021580;28;20053;-47
2023/12/14 02:28:59;;;;;;;1.45;1.08;;;;;;;6.88;100.00;100646.81;5030048;28;20049;-51
2023/12/14 02:31:26;;;;;;;2.25;1.40;;;;;;;6.89;100.00;100658.59;5029157;28;20053;-46
2023/12/14 02:33:54;;;;;;;3.08;1.45;;;;;;;6.87;100.00;100667.19;5029820;28;20040;-51
2023/12/14 02:36:21;;;;;;;4.20;1.25;;;;;;;6.88;100.00;100670.75;5029810;28;20503;-47
2023/12/14 02:38:49;;;;;;;1.85;1.30;;;;;;;6.90;100.00;100671.25;5029692;28;20765;-46
2023/12/14 02:41:16;;;;;;;4.20;1.98;;;;;;;6.91;100.00;100670.91;5011679;28;20054;-46
2023/12/14 02:43:43;;;;;;;5.88;1.50;;;;;;;6.94;100.00;100673.03;5029259;28;20057;-47
2023/12/14 02:46:13;;;;;;;3.60;1.88;;;;;;;6.96;100.00;100664.47;5030071;28;20049;-48
2023/12/14 02:48:43;;;;;;;4.57;1.65;;;;;;;6.98;100.00;100667.69;5028935;28;20052;-48
2023/12/14 02:51:14;;;;;;;6.30;1.80;;;;;;;7.00;100.00;100671.75;5012037;28;20048;-49
2023/12/14 02:53:42;;;;;;;8.50;2.57;;;;;;;7.01;100.00;100667.88;5029798;28;20068;-46
2023/12/14 02:56:10;;;;;;;2.92;1.92;;;;;;;7.02;100.00;100666.72;5029231;28;20064;-51
2023/12/14 02:58:39;;;;;;;14.73;2.40;;;;;;;7.04;100.00;100677.41;5029539;28;20389;-46
2023/12/14 03:01:06;;;;;;;7.10;2.13;;;;;;;7.05;100.00;100677.09;5101554;22;20068;-47
2023/12/14 03:03:33;;;;;;;5.75;1.88;;;;;;;7.06;100.00;100673.22;5037180;28;20041;-47
2023/12/14 03:06:01;;;;;;;7.43;1.75;;;;;;;7.08;100.00;100678.38;5033411;28;20046;-50
2023/12/14 03:08:28;;;;;;;7.68;2.05;;;;;;;7.12;100.00;100673.84;5039659;28;20084;-49
2023/12/14 03:10:56;;;;;;;7.65;2.53;;;;;;;7.14;100.00;100666.06;5030388;28;20045;-53
2023/12/14 03:13:23;;;;;;;8.30;2.30;;;;;;;7.17;100.00;100668.19;5035890;28;20057;-47
2023/12/14 03:15:51;;;;;;;12.45;2.15;;;;;;;7.19;100.00;100680.50;5027763;28;20048;-48
2023/12/14 03:18:18;;;;;;;7.72;2.42;;;;;;;7.20;100.00;100681.31;5028128;28;20053;-51
2023/12/14 03:20:46;;;;;;;5.53;2.10;;;;;;;7.23;100.00;100683.38;5028794;28;20049;-50
2023/12/14 03:23:13;;;;;;;11.35;4.00;;;;;;;7.24;100.00;100687.78;5028639;28;20061;-49
2023/12/14 03:25:40;;;;;;;8.93;2.50;;;;;;;7.26;100.00;100685.50;5027271;28;20053;-50
2023/12/14 03:28:09;;;;;;;11.38;3.58;;;;;;;7.30;100.00;100683.72;5028649;28;20506;-49
2023/12/14 03:30:36;;;;;;;7.63;2.70;;;;;;;7.32;100.00;100684.22;5027692;28;20048;-52
2023/12/14 03:33:06;;;;;;;13.43;4.03;;;;;;;7.32;100.00;100676.75;5027895;28;20497;-47
2023/12/14 03:35:34;;;;;;;14.30;2.88;;;;;;;7.32;100.00;100673.19;5033437;28;20048;-52
2023/12/14 03:38:01;;;;;;;10.88;2.90;;;;;;;7.33;100.00;100666.56;5035398;28;20046;-51
2023/12/14 03:40:29;;;;;;;18.52;2.58;;;;;;;7.33;100.00;100663.81;5032996;28;20053;-50
2023/12/14 03:42:56;;;;;;;9.75;2.47;;;;;;;7.33;100.00;100663.81;5030099;28;20567;-53
2023/12/14 03:45:24;;;;;;;16.00;6.25;;;;;;;7.32;100.00;100653.91;5031498;28;20056;-49
2023/12/14 03:47:51;;;;;;;12.13;2.85;;;;;;;7.32;100.00;100659.41;5027432;28;20049;-47
2023/12/14 03:50:18;;;;;;;7.78;2.53;;;;;;;7.32;100.00;100651.16;5014763;28;20041;-48
2023/12/14 03:52:46;;;;;;;9.23;3.20;;;;;;;7.31;100.00;100666.88;5027617;28;20068;-51
2023/12/14 03:55:16;;;;;;;10.02;2.50;;;;;;;7.32;100.00;100659.41;5025174;28;20103;-48
2023/12/14 03:57:44;;;;;;;7.60;2.80;;;;;;;7.31;100.00;100657.78;5028195;28;20053;-50
2023/12/14 04:00:13;;;;;;;10.13;2.75;;;;;;;7.31;100.00;100660.53;5026309;28;20053;-49
2023/12/14 04:02:40;;;;;;;5.93;2.53;;;;;;;7.31;100.00;100655.03;5011084;28;20061;-47
2023/12/14 04:05:08;;;;;;;6.80;2.67;;;;;;;7.32;100.00;100673.19;5019090;28;20048;-48
2023/12/14 04:07:40;;;;;;;7.22;3.45;;;;;;;7.34;100.00;100670.91;5005713;28;20061;-49
2023/12/14 04:10:08;;;;;;;3.75;2.17;;;;;;;7.33;100.00;100653.56;5007333;28;20058;-52
2023/12/14 04:12:37;;;;;;;3.90;1.85;;;;;;;7.34;100.00;100665.41;5007254;28;21153;-50
2023/12/14 04:15:06;;;;;;;4.70;1.95;;;;;;;7.35;100.00;100667.03;5007858;28;20049;-50
2023/12/14 04:17:34;;;;;;;5.18;2.33;;;;;;;7.37;100.00;100653.75;5006126;28;20049;-49
2023/12/14 04:20:02;;;;;;;7.05;2.15;;;;;;;7.36;100.00;100657.63;4996420;28;20057;-47
2023/12/14 04:22:30;;;;;;;4.70;2.92;;;;;;;7.38;100.00;100671.91;5007744;28;20060;-47
2023/12/14 04:24:57;;;;;;;6.05;2.45;;;;;;;7.39;100.00;100665.22;5007634;28;20044;-49
2023/12/14 04:27:28;;;;;;;5.15;2.22;;;;;;;7.40;100.00;100658.59;5002533;28;20046;-47
2023/12/14 04:29:56;;;;;;;5.35;2.55;;;;;;;7.41;100.00;100674.00;5008078;28;20057;-49
2023/12/14 04:32:23;;;;;;;5.03;2.17;;;;;;;7.41;100.00;100675.94;5012749;28;20049;-48
2023/12/14 04:34:50;;;;;;;8.55;2.28;;;;;;;7.42;100.00;100670.09;5027774;28;20049;-51
2023/12/14 04:37:18;;;;;;;7.70;3.28;;;;;;;7.43;100.00;100674.47;5007270;28;20042;-53
2023/12/14 04:39:45;;;;;;;7.63;2.67;;;;;;;7.44;100.00;100670.56;4990180;28;20046;-49
2023/12/14 04:42:13;;;;;;;4.43;1.95;;;;;;;7.44;100.00;100672.53;5007984;28;20515;-50
2023/12/14 04:44:41;;;;;;;3.53;1.75;;;;;;;7.45;100.00;100669.44;5020657;28;20057;-48
2023/12/14 04:47:08;;;;;;;5.78;1.65;;;;;;;7.47;100.00;100667.16;5019840;28;20400;-49
2023/12/14 04:49:35;;;;;;;4.40;2.03;;;;;;;7.49;100.00;100673.19;5006745;28;20054;-47
2023/12/14 04:52:04;;;;;;;5.80;2.38;;;;;;;7.50;100.00;100682.25;5007254;28;20503;-51
2023/12/14 04:54:31;;;;;;;4.65;1.70;;;;;;;7.53;100.00;100695.38;5006755;28;20042;-49
2023/12/14 04:56:58;;;;;;;2.92;2.13;;;;;;;7.54;100.00;100703.31;5006146;28;20046;-50
2023/12/14 04:59:26;;;;;;;6.38;1.95;;;;;;;7.56;100.00;100705.72;5007762;28;20038;-49
2023/12/14 05:01:53;;;;;;;3.85;2.45;;;;;;;7.57;100.00;100719.16;5011463;28;20470;-48
2023/12/14 05:04:20;;;;;;;6.22;1.70;;;;;;;7.59;100.00;100714.16;5005447;28;20046;-48
2023/12/14 05:06:49;;;;;;;3.80;2.05;;;;;;;7.61;100.00;100711.88;5003801;28;20042;-50
2023/12/14 05:09:16;;;;;;;3.90;1.90;;;;;;;7.63;100.00;100711.56;5005829;28;20046;-47
2023/12/14 05:11:43;;;;;;;6.90;2.17;;;;;;;7.65;100.00;100721.09;5007301;28;20053;-49
2023/12/14 05:14:11;;;;;;;2.63;2.13;;;;;;;7.65;100.00;100721.09;5010412;28;20038;-51
2023/12/14 05:16:39;;;;;;;7.40;1.77;;;;;;;7.67;100.00;100724.38;5011240;28;20053;-53
2023/12/14 05:19:06;;;;;;;7.00;1.98;;;;;;;7.68;100.00;100725.97;5010977;28;20038;-51
2023/12/14 05:21:34;;;;;;;8.23;2.63;;;;;;;7.70;100.00;100733.94;5010967;28;20061;-51
2023/12/14 05:24:02;;;;;;;7.13;2.65;;;;;;;7.71;100.00;100736.34;5010211;28;20045;-48
2023/12/14 05:26:30;;;;;;;6.15;2.10;;;;;;;7.71;100.00;100733.59;5009784;28;20045;-49
2023/12/14 05:28:57;;;;;;;7.13;2.10;;;;;;;7.72;100.00;100737.16;5010910;28;20427;-49
2023/12/14 05:31:24;;;;;;;5.78;2.30;;;;;;;7.74;100.00;100735.69;5010848;28;20050;-51
2023/12/14 05:33:52;;;;;;;13.68;3.92;;;;;;;7.75;100.00;100737.31;5010578;28;20042;-51
2023/12/14 05:36:19;;;;;;;11.77;2.58;;;;;;;7.77;100.00;100735.03;5010722;28;20700;-50
2023/12/14 05:38:46;;;;;;;10.32;2.63;;;;;;;7.78;100.00;100731.13;5010233;28;20046;-48
2023/12/14 05:41:14;;;;;;;7.18;3.22;;;;;;;7.78;100.00;100742.16;5021642;28;20075;-53
2023/12/14 05:43:41;;;;;;;7.60;2.70;;;;;;;7.80;100.00;100756.44;5011927;28;20045;-53
2023/12/14 05:46:09;;;;;;;13.15;2.85;;;;;;;7.80;100.00;100745.41;5011089;28;20065;-48
2023/12/14 05:48:37;;;;;;;10.25;2.95;;;;;;;7.79;100.00;100742.97;5010023;28;20508;-47
2023/12/14 05:51:06;;;;;;;6.10;2.67;;;;;;;7.79;100.00;100743.78;4993501;28;20137;-52
2023/12/14 05:53:39;;;;;;;15.05;3.63;;;;;;;7.80;100.00;100759.19;5016459;28;20523;-51
2023/12/14 05:56:07;;;;;;;10.40;2.70;;;;;;;7.82;100.00;100767.94;5010910;28;20084;-50
2023/12/14 05:58:34;;;;;;;6.55;3.00;;;;;;;7.83;100.00;100769.59;5008186;28;20057;-47
2023/12/14 06:01:02;;;;;;;9.23;3.55;;;;;;;7.84;100.00;100782.22;5009837;28;20550;-47
2023/12/14 06:03:31;;;;;;;10.05;2.75;;;;;;;7.86;100.00;100781.91;5009815;28;20061;-50
2023/12/14 06:05:58;;;;;;;9.40;2.75;;;;;;;7.86;100.00;100781.91;5007498;28;20126;-51
2023/12/14 06:08:26;;;;;;;17.75;3.22;;;;;;;7.87;100.00;100786.25;5009507;28;20072;-50
2023/12/14 06:10:56;;;;;;;13.30;2.92;;;;;;;7.87;100.00;100795.34;5009146;28;20399;-52
2023/12/14 06:13:25;;;;;;;13.80;2.80;;;;;;;7.87;100.00;100806.38;5009145;28;20400;-54
2023/12/14 06:15:52;;;;;;;13.63;3.00;;;;;;;7.87;100.00;100800.03;5009014;28;20515;-48
2023/12/14 06:18:19;;;;;;;12.15;2.45;;;;;;;7.85;100.00;100814.16;5009041;28;20046;-50
2023/12/14 06:20:47;;;;;;;13.23;3.08;;;;;;;7.83;100.00;100816.44;5008307;28;20049;-50
2023/12/14 06:23:14;;;;;;;18.02;3.63;;;;;;;7.80;100.00;100827.28;5008964;28;20049;-51
2023/12/14 06:25:42;;;;;;;15.65;2.40;;;;;;;7.74;100.00;100820.31;5013918;28;20048;-49
2023/12/14 06:28:12;;;;;;;16.65;3.65;;;;;;;7.69;100.00;100826.81;5010253;28;20042;-49
2023/12/14 06:30:40;;;;;;;21.80;4.60;;;;;;;7.67;100.00;100829.06;5009140;28;20069;-48
2023/12/14 06:33:07;;;;;;;24.92;5.05;;;;;;;7.62;100.00;100843.03;4991222;28;20081;-49
2023/12/14 06:35:35;;;;;;;20.55;3.53;;;;;;;7.59;100.00;100843.66;5008946;28;20041;-50
2023/12/14 06:38:02;;;;;;;20.67;3.60;;;;;;;7.57;100.00;100850.63;5002282;28;20046;-52
2023/12/14 06:40:29;;;;;;;23.35;3.28;;;;;;;7.52;100.00;100853.53;5007858;28;20054;-54
2023/12/14 06:42:56;;;;;;;24.10;4.60;;;;;;;7.50;100.00;100861.28;5008490;28;20130;-48
2023/12/14 06:45:24;;;;;;;22.52;3.83;;;;;;;7.43;100.00;100861.78;5008967;28;20068;-50
2023/12/14 06:47:51;;;;;;;13.98;2.92;;;;;;;7.39;100.00;100866.28;5009122;28;20049;-48
2023/12/14 06:50:18;;;;;;;20.92;3.60;;;;;;;7.33;100.00;100856.59;5008750;28;20042;-50
2023/12/14 06:52:46;;;;;;;18.52;4.25;;;;;;;7.28;100.00;100876.00;5008238;28;20507;-50
2023/12/14 06:55:14;;;;;;;17.13;5.05;;;;;;;7.23;100.00;100873.38;5009127;28;20565;-49
2023/12/14 06:57:46;;;;;;;21.13;5.15;;;;;;;7.18;100.00;100868.84;5008265;28;20045;-50
2023/12/14 07:00:14;;;;;;;31.10;5.47;;;;;;;7.14;100.00;100880.81;4997818;28;20614;-49
2023/12/14 07:02:42;;;;;;;29.25;3.90;;;;;;;7.09;100.00;100883.72;5008267;28;20427;-49
2023/12/14 07:05:09;;;;;;;17.95;3.95;;;;;;;7.03;100.00;100879.47;5009051;28;20049;-49
2023/12/14 07:07:37;;;;;;;22.17;4.15;;;;;;;6.98;100.00;100898.88;5007189;28;20054;-50
2023/12/14 07:10:04;;;;;;;20.38;3.53;;;;;;;6.95;100.00;100899.53;5008103;28;20068;-49
2023/12/14 07:12:32;;;;;;;26.63;4.30;;;;;;;6.93;100.00;100901.78;5006598;28;20053;-47
2023/12/14 07:14:59;;;;;;;16.70;3.70;;;;;;;6.90;100.00;100902.41;5011124;28;20523;-48
2023/12/14 07:17:27;;;;;;;30.30;5.78;;;;;;;6.88;100.00;100910.19;5007572;28;20061;-47
2023/12/14 07:19:54;;;;;;;17.05;4.25;;;;;;;6.85;100.00;100913.56;5001046;28;20057;-50
2023/12/14 07:22:26;;;;;;;24.98;7.32;;;;;;;6.82;100.00;100934.28;5007390;28;20050;-48
2023/12/14 07:24:53;;;;;;;22.83;5.32;;;;;;;6.79;100.00;100934.06;4972203;28;20050;-47
2023/12/14 07:27:27;;;;;;;25.17;4.35;;;;;;;6.75;100.00;100934.69;5008010;28;20073;-51
2023/12/14 07:29:54;;;;;;;27.85;6.40;;;;;;;6.72;100.00;100940.84;5007682;28;20049;-48
2023/12/14 07:32:21;;;;;;;20.10;4.78;;;;;;;6.69;100.00;100941.50;5009406;28;20061;-48
2023/12/14 07:34:49;;;;;;;23.90;4.78;;;;;;;6.67;100.00;100949.22;5007349;28;20049;-47
2023/12/14 07:37:16;;;;;;;32.00;5.13;;;;;;;6.65;100.00;100951.47;5008282;28;20539;-51
2023/12/14 07:39:44;;;;;;;29.88;6.53;;;;;;;6.64;100.00;100949.88;5008624;28;20058;-50
2023/12/14 07:42:11;;;;;;;23.23;5.60;;;;;;;6.63;100.00;100962.00;5007858;28;20045;-49
2023/12/14 07:44:40;;;;;;;29.83;5.18;;;;;;;6.62;100.00;100973.28;5008349;28;20081;-51
2023/12/14 07:47:07;;;;;;;24.63;4.63;;;;;;;6.59;100.00;100973.94;5020530;28;20046;-50
2023/12/14 07:49:35;;;;;;;28.33;4.82;;;;;;;6.57;100.00;100981.69;5008173;28;20065;-49
2023/12/14 07:52:03;;;;;;;31.10;6.15;;;;;;;6.55;100.00;100972.94;5008574;28;20053;-48
2023/12/14 07:54:30;;;;;;;37.60;6.65;;;;;;;6.53;100.00;100981.50;5021064;28;20076;-49
2023/12/14 07:56:57;;;;;;;28.88;5.93;;;;;;;6.52;100.00;100974.38;5007955;28;20050;-49
2023/12/14 07:59:24;;;;;;;26.13;4.80;;;;;;;6.51;100.00;100985.69;5008394;28;20041;-51
2023/12/14 08:01:52;;;;;;;22.13;4.70;;;;;;;6.50;100.00;100987.63;5015970;28;20057;-49
2023/12/14 08:04:19;;;;;;;37.35;5.88;;;;;;;6.48;100.00;100989.06;5014323;28;20046;-48
2023/12/14 08:06:47;;;;;;;29.98;4.68;;;;;;;6.48;100.00;100994.56;5014604;28;20038;-51
2023/12/14 08:09:15;;;;;;;33.88;5.80;;;;;;;6.47;100.00;100995.69;5008248;28;20412;-47
2023/12/14 08:11:43;;;;;;;44.28;7.95;;;;;;;6.45;100.00;100995.19;5009610;28;20526;-48
2023/12/14 08:14:10;;;;;;;43.72;7.78;;;;;;;6.45;100.00;101011.69;4989272;28;20046;-47
2023/12/14 08:16:38;;;;;;;34.15;6.85;;;;;;;6.43;100.00;101014.75;5006546;28;20061;-48
2023/12/14 08:19:05;;;;;;;41.42;6.22;;;;;;;6.43;100.00;101024.94;4990131;28;20496;-50
2023/12/14 08:21:32;;;;;;;31.58;6.93;;;;;;;6.45;100.00;101025.44;5007515;28;20531;-48
2023/12/14 08:23:59;;;;;;;54.22;8.30;;;;;;;6.44;100.00;101032.03;5006822;28;20034;-48
2023/12/14 08:26:27;;;;;;;38.40;8.55;;;;;;;6.47;100.00;101036.94;5006572;28;20057;-47
2023/12/14 08:28:54;;;;;;;36.00;5.80;;;;;;;6.49;100.00;101035.50;5006229;28;20060;-49
2023/12/14 08:31:22;;;;;;;24.33;5.47;;;;;;;6.50;100.00;101042.63;5005577;28;20668;-50
2023/12/14 08:33:50;;;;;;;32.38;6.22;;;;;;;6.50;100.00;101042.63;5007199;28;20033;-54
2023/12/14 08:36:17;;;;;;;31.33;5.70;;;;;;;6.51;100.00;101058.00;5018174;28;20885;-47
2023/12/14 08:38:45;;;;;;;38.08;6.15;;;;;;;6.53;100.00;101055.78;5009228;28;20053;-49
2023/12/14 08:41:15;;;;;;;28.83;5.95;;;;;;;6.55;100.00;101059.03;5007575;28;20054;-51
2023/12/14 08:43:43;;;;;;;29.30;6.00;;;;;;;6.59;100.00;101072.97;5013785;28;20045;-46
2023/12/14 08:46:11;;;;;;;37.35;7.18;;;;;;;6.60;100.00;101078.16;5014799;28;20046;-47
2023/12/14 08:48:38;;;;;;;36.30;9.07;;;;;;;6.63;100.00;101084.97;5006568;28;20057;-49
2023/12/14 08:51:06;;;;;;;23.70;5.38;;;;;;;6.65;100.00;101086.28;5007161;28;20053;-49
2023/12/14 08:53:33;;;;;;;33.33;7.03;;;;;;;6.67;100.00;101089.53;5007026;28;20057;-52
2023/12/14 08:56:02;;;;;;;28.92;6.43;;;;;;;6.69;100.00;101098.31;5007626;28;20045;-51
2023/12/14 08:58:29;;;;;;;23.63;5.25;;;;;;;6.70;100.00;101094.41;5007361;28;20054;-47
2023/12/14 09:00:57;;;;;;;25.45;5.90;;;;;;;6.74;100.00;101100.13;5007429;28;20065;-51
2023/12/14 09:03:26;;;;;;;33.28;5.57;;;;;;;6.77;100.00;101106.94;5014989;28;20534;-46
2023/12/14 09:05:53;;;;;;;37.22;6.70;;;;;;;6.77;100.00;101101.44;5011413;28;20680;-50
2023/12/14 09:08:21;;;;;;;38.08;6.43;;;;;;;6.78;100.00;101112.13;5008035;28;20050;-50
2023/12/14 09:10:49;;;;;;;31.35;6.57;;;;;;;6.79;100.00;101115.69;5009031;28;20050;-49
2023/12/14 09:13:16;;;;;;;45.88;6.60;;;;;;;6.79;100.00;101122.00;5018222;28;20431;-52
2023/12/14 09:15:43;;;;;;;38.45;7.57;;;;;;;6.80;100.00;101129.16;5020615;28;20054;-47
2023/12/14 09:18:11;;;;;;;28.10;5.88;;;;;;;6.82;100.00;101134.34;5007051;28;20056;-52
2023/12/14 09:20:40;;;;;;;39.05;5.75;;;;;;;6.86;100.00;101138.13;5007384;28;20050;-46
2023/12/14 09:23:08;;;;;;;34.50;8.25;;;;;;;6.86;100.00;101143.63;5017080;28;20053;-48
2023/12/14 09:25:35;;;;;;;31.33;6.13;;;;;;;6.87;100.00;101154.31;5007596;28;20411;-48
2023/12/14 09:28:03;;;;;;;35.03;6.60;;;;;;;6.89;100.00;101159.47;4998780;28;20404;-47
2023/12/14 09:30:30;;;;;;;24.00;4.78;;;;;;;6.90;100.00;101161.94;5007099;28;20045;-49
2023/12/14 09:32:58;;;;;;;29.38;5.55;;;;;;;6.94;100.00;101164.88;5018711;28;20061;-48
2023/12/14 09:35:26;;;;;;;22.20;4.57;;;;;;;6.95;100.00;101161.00;5021425;28;20530;-49
2023/12/14 09:37:53;;;;;;;23.02;5.95;;;;;;;6.96;100.00;101168.97;5018927;28;20053;-48
2023/12/14 09:40:22;;;;;;;28.33;6.32;;;;;;;6.98;100.00;101171.41;5007624;28;20057;-49
2023/12/14 09:42:49;;;;;;;31.13;4.95;;;;;;;6.99;100.00;101170.28;4989510;28;20046;-51
2023/12/14 09:45:17;;;;;;;34.00;5.43;;;;;;;7.01;100.00;101174.34;5006542;28;20427;-51
2023/12/14 09:47:46;;;;;;;34.13;8.02;;;;;;;7.03;100.00;101187.78;5002056;28;20049;-48
2023/12/14 09:50:14;;;;;;;27.60;7.38;;;;;;;7.03;100.00;101193.28;4983730;28;20407;-48
2023/12/14 09:52:45;;;;;;;25.88;5.88;;;;;;;7.05;100.00;101196.53;4999530;28;20057;-50
2023/12/14 09:55:13;;;;;;;25.98;4.60;;;;;;;7.05;100.00;101191.84;5020371;28;20568;-48
2023/12/14 09:57:40;;;;;;;27.17;6.18;;;;;;;7.06;100.00;101190.75;5006772;28;20041;-49
2023/12/14 10:00:10;;;;;;;24.77;5.65;;;;;;;7.08;100.00;101199.50;4997319;28;20049;-50
2023/12/14 10:02:38;;;;;;;28.55;5.85;;;;;;;7.09;100.00;101197.56;5010894;28;20065;-50
2023/12/14 10:05:10;;;;;;;28.58;4.60;;;;;;;7.09;100.00;101200.31;5022339;28;20045;-47
2023/12/14 10:07:44;;;;;;;21.98;5.25;;;;;;;7.10;100.00;101200.00;5011072;28;20050;-49
2023/12/14 10:10:14;;;;;;;20.30;5.55;;;;;;;7.12;100.00;101205.22;5019647;28;20065;-49
2023/12/14 10:12:54;;;;;;;28.60;5.10;;;;;;;7.13;100.00;101209.56;5027577;28;20060;-53
2023/12/14 10:15:24;;;;;;;31.73;5.55;;;;;;;7.14;100.00;101211.22;5029791;28;20056;-49
2023/12/14 10:17:53;;;;;;;19.95;5.03;;;;;;;7.15;100.00;101215.56;5022870;28;20522;-50
2023/12/14 10:20:22;;;;;;;29.40;6.00;;;;;;;7.17;100.00;101225.19;5009687;28;20049;-47
2023/12/14 10:22:50;;;;;;;34.85;5.43;;;;;;;7.18;100.00;101229.53;5009813;28;20053;-47
2023/12/14 10:25:20;;;;;;;24.48;5.13;;;;;;;7.20;100.00;101232.00;5009977;28;20057;-51
2023/12/14 10:27:48;;;;;;;30.77;5.80;;;;;;;7.22;100.00;101235.25;5009541;28;20058;-52
2023/12/14 10:30:16;;;;;;;25.42;6.53;;;;;;;7.23;100.00;101245.13;5009598;28;20053;-52
2023/12/14 10:32:44;;;;;;;39.45;9.90;;;;;;;7.25;100.00;101256.66;5009860;28;20597;-48
2023/12/14 10:35:12;;;;;;;30.75;5.82;;;;;;;7.25;100.00;101251.94;5009131;28;20049;-51
2023/12/14 10:37:40;;;;;;;23.65;5.93;;;;;;;7.26;100.00;101252.78;5009147;28;20392;-53
2023/12/14 10:40:12;;;;;;;30.08;5.60;;;;;;;7.26;100.00;101263.78;5009756;28;20057;-50
2023/12/14 10:42:42;;;;;;;;;;;;;;;7.27;100.00;101255.22;5010123;28;20053;-49
2023/12/14 10:45:16;;;;;;;25.90;5.07;;;;;;;7.28;100.00;101264.31;5009632;28;19921;-47
2023/12/14 10:47:48;;;;;;;21.08;5.30;;;;;;;7.28;100.00;101272.56;5009980;28;20061;-50
2023/12/14 10:50:18;;;;;;;29.13;6.03;;;;;;;7.29;100.00;101271.44;5008740;28;20576;-51
2023/12/14 10:52:46;;;;;;;25.58;6.13;;;;;;;7.32;100.00;101276.31;5009538;28;20507;-51
2023/12/14 10:55:37;;;;;;;32.50;6.53;;;;;;;7.35;100.00;101278.47;5009683;28;20522;-55
2023/12/14 10:58:05;;;;;;;20.52;4.68;;;;;;;7.36;100.00;101280.06;5013095;28;20044;-48
2023/12/14 11:00:33;;;;;;;25.48;5.75;;;;;;;7.39;100.00;101275.91;5017806;28;20050;-49
2023/12/14 11:03:01;;;;;;;30.65;6.47;;;;;;;7.38;100.00;101283.34;5009041;28;20061;-52
2023/12/14 11:05:29;;;;;;;22.65;5.32;;;;;;;7.40;100.00;101275.59;5009614;28;20050;-52
2023/12/14 11:08:12;;;;;;;34.60;6.55;;;;;;;7.41;100.00;101270.91;5008230;28;20050;-49
2023/12/14 11:10:40;;;;;;;30.80;8.38;;;;;;;7.40;100.00;101264.56;4990568;28;20053;-47
2023/12/14 11:13:11;;;;;;;24.17;5.38;;;;;;;7.43;100.00;101261.19;5016374;28;20048;-55
2023/12/14 11:15:50;;;;;;;33.35;5.95;;;;;;;7.47;100.00;101275.97;5013004;28;20525;-49
2023/12/14 11:18:17;;;;;;;32.60;6.75;;;;;;;7.48;100.00;101280.34;5008985;28;20050;-50
2023/12/14 11:20:45;;;;;;;28.55;5.20;;;;;;;7.51;100.00;101284.44;5008838;28;20049;-49
2023/12/14 11:23:14;;;;;;;23.27;4.97;;;;;;;7.52;100.00;101289.63;5009221;28;20773;-48
2023/12/14 11:25:41;;;;;;;28.88;7.15;;;;;;;7.55;100.00;101293.69;5008115;28;20042;-49